A- A+ FrançaisEnglishEspañol中国

le plus proche LFBT Tarbes-Lourdes-PyrénéesLFJR Angers MarceLFNA Gap-Tallard LFPT Pontoise-Cormeilles-En-Vexin

manche à air

La météo aéronautique pour les pilotes, la préparation du vol avec les METAR (METeorological Aerodrome Report, message d'observation des conditions météorologiques pour l'aviation) et Les TAF (Terminal Aerodrome Forecast : message de prévision à court terme des conditions météorologiques pour l'aviation). Et les autres ressources comme les VAC (Visual Approch Chart) et les NOTAM (Notice To Airman) pour préprer les vols.

Aéroport Woensdrecht (Pays-Bas) / OACI EHWO/ IATA WOE

L'altitude de l'aéroport Woensdrecht est de 19 m=62 ft. Il est situé à proximité de Bergen Op Zoom (Pays-Bas). La météo générale à 5 jours est disponible pour Gemeente Bergen op Zoom situé à 7.3 km.

METAR de l'aéroport Woensdrecht - EHWO

EHWO 291155Z AUTO 22011KT 170V250 9999 DZ BKN016 OVC020 17/14 Q0998 WHT

Décodage du METAR de l'aéroport Woensdrecht (NL)

METAR émis par EHWO le dimanche 29 septembre 2019 à 11:55 heure TU. C'est un METAR généré automatiquement. Attention ce METAR est obsolète car il a été émis il y a 19 heure et 5 minutes.

La visibilité est de supérieure à 10 km=supérieure à 6.2 sm.

La température est de 17°C=63 °F et le point rosée est de 14°C=57 °F . Ce qui correspond à 83% d'humidité relative.

Le QNH est de 998 hPa=29.47 inHg

Vent de 11 kt=20 km/h, orienté à 220°.

Nuages : Couverture nuageuse fragmentée à 1600 ft=490 mètres. Couverture nuageuse soudée à 2000 ft=610 mètres.

DZ

WHT

TAF de l'aéroport Woensdrecht - EHWO

EHWO 250804Z 2509/2521 20009KT 9999 SCT012 BKN016 TEMPO 2509/2521 4500 RA SHRA SCT008 SCT018CB

EHWO 250804Z 2509/2521 20009KT 9999 nuages épars à 012 couverture nuageuse fragmentée à 016 temporairement 2509/2521 4500 pluie SHRA nuages épars à 008 nuages épars à 018CB

Aéroport à proximité de Woensdrecht

Météo générale à 5 jours à Gemeente Bergen op Zoom (7.3 km)EBHN Aéroport Hoevenen (16 km)EBBT Aéroport Brasschaat - Army (16 km)EHSE Aéroport Hoeven Seppe (19 km)EBAW Aéroport Antwerpen Deurne (30 km)EBZR Aéroport Zoersel Mil (35 km)EHMZ Aéroport Middelburg Midden Zeeland (43 km)

Vue aérienne de l'aéroport Woensdrecht

NOTAM de l'aéroport Woensdrecht

Les NOTAM sont fournis sans aucune garantie de leur actualité. Le pilote est le seul responsable de la vérification de sa validité avant de l'utiliser opérationnellement pour préparer un vol ou l'utiliser lors de sa navigation.

Pas de NOTAM

Sources des données